sensor_id;sensor_type;location;lat;lon;timestamp;pressure;altitude;pressure_sealevel;temperature;humidity
10476;BME280;26166;48.264;11.436;2024-03-08T00:00:54;96108.41;;;9.41;49.37
10476;BME280;26166;48.264;11.436;2024-03-08T00:03:54;96107.78;;;9.39;49.78
10476;BME280;26166;48.264;11.436;2024-03-08T00:06:54;96111.84;;;9.41;49.87
10476;BME280;26166;48.264;11.436;2024-03-08T00:09:54;96113.97;;;9.38;49.66
10476;BME280;26166;48.264;11.436;2024-03-08T00:12:55;96115.78;;;9.37;49.75
10476;BME280;26166;48.264;11.436;2024-03-08T00:15:55;96108.72;;;9.38;49.50
10476;BME280;26166;48.264;11.436;2024-03-08T00:18:57;96109.41;;;9.40;49.43
10476;BME280;26166;48.264;11.436;2024-03-08T00:21:57;96096.78;;;9.35;49.52
10476;BME280;26166;48.264;11.436;2024-03-08T00:24:58;96099.41;;;9.35;49.53
10476;BME280;26166;48.264;11.436;2024-03-08T00:27:58;96099.56;;;9.33;49.42
10476;BME280;26166;48.264;11.436;2024-03-08T00:31:00;96106.28;;;9.36;49.14
10476;BME280;26166;48.264;11.436;2024-03-08T00:34:00;96098.09;;;9.31;49.20
10476;BME280;26166;48.264;11.436;2024-03-08T00:37:00;96099.91;;;9.30;49.51
10476;BME280;26166;48.264;11.436;2024-03-08T00:40:00;96093.84;;;9.30;49.17
10476;BME280;26166;48.264;11.436;2024-03-08T00:43:01;96093.84;;;9.30;49.40
10476;BME280;26166;48.264;11.436;2024-03-08T00:46:03;96084.50;;;9.27;49.16
10476;BME280;26166;48.264;11.436;2024-03-08T00:49:16;96084.66;;;9.26;49.54
10476;BME280;26166;48.264;11.436;2024-03-08T00:52:25;96068.75;;;9.27;49.25
10476;BME280;26166;48.264;11.436;2024-03-08T00:55:25;96063.53;;;9.27;49.07
10476;BME280;26166;48.264;11.436;2024-03-08T00:58:26;96057.63;;;9.25;49.12
10476;BME280;26166;48.264;11.436;2024-03-08T01:01:26;96058.78;;;9.23;49.30
10476;BME280;26166;48.264;11.436;2024-03-08T01:04:26;96054.03;;;9.18;49.21
10476;BME280;26166;48.264;11.436;2024-03-08T01:07:29;96044.84;;;9.14;49.16
10476;BME280;26166;48.264;11.436;2024-03-08T01:10:29;96047.63;;;9.13;49.19
10476;BME280;26166;48.264;11.436;2024-03-08T01:13:29;96041.56;;;9.12;49.12
10476;BME280;26166;48.264;11.436;2024-03-08T01:16:29;96044.84;;;9.14;49.22
10476;BME280;26166;48.264;11.436;2024-03-08T01:19:29;96032.38;;;9.16;49.44
10476;BME280;26166;48.264;11.436;2024-03-08T01:22:32;96036.66;;;9.17;49.08
10476;BME280;26166;48.264;11.436;2024-03-08T01:25:38;96037.31;;;9.19;49.22
10476;BME280;26166;48.264;11.436;2024-03-08T01:28:43;96032.38;;;9.16;49.15
10476;BME280;26166;48.264;11.436;2024-03-08T01:31:43;96029.63;;;9.18;49.03
10476;BME280;26166;48.264;11.436;2024-03-08T01:34:44;96023.56;;;9.17;48.95
10476;BME280;26166;48.264;11.436;2024-03-08T01:37:47;96022.41;;;9.20;49.16
10476;BME280;26166;48.264;11.436;2024-03-08T01:40:49;96026.19;;;9.25;49.10
10476;BME280;26166;48.264;11.436;2024-03-08T01:43:50;96023.22;;;9.28;48.99
10476;BME280;26166;48.264;11.436;2024-03-08T01:46:50;96016.03;;;9.30;48.52
10476;BME280;26166;48.264;11.436;2024-03-08T01:49:52;96012.72;;;9.28;49.03
10476;BME280;26166;48.264;11.436;2024-03-08T01:52:52;96011.09;;;9.27;48.95
10476;BME280;26166;48.264;11.436;2024-03-08T01:55:54;96004.53;;;9.23;48.74
10476;BME280;26166;48.264;11.436;2024-03-08T01:58:56;96002.41;;;9.19;49.00
10476;BME280;26166;48.264;11.436;2024-03-08T02:01:56;95995.69;;;9.16;49.17
10476;BME280;26166;48.264;11.436;2024-03-08T02:05:00;95992.75;;;9.11;49.10
10476;BME280;26166;48.264;11.436;2024-03-08T02:08:01;95979.66;;;9.11;49.13
10476;BME280;26166;48.264;11.436;2024-03-08T02:11:02;95977.38;;;9.08;49.11
10476;BME280;26166;48.264;11.436;2024-03-08T02:14:03;95972.44;;;9.05;49.43
10476;BME280;26166;48.264;11.436;2024-03-08T02:17:06;95972.44;;;9.05;49.20
10476;BME280;26166;48.264;11.436;2024-03-08T02:20:09;95972.78;;;9.02;49.35
10476;BME280;26166;48.264;11.436;2024-03-08T02:23:10;95978.00;;;9.02;49.13
10476;BME280;26166;48.264;11.436;2024-03-08T02:26:10;95971.44;;;8.90;49.25
10476;BME280;26166;48.264;11.436;2024-03-08T02:29:11;95974.09;;;8.81;49.52
10476;BME280;26166;48.264;11.436;2024-03-08T02:32:11;95968.50;;;8.84;49.36
10476;BME280;26166;48.264;11.436;2024-03-08T02:35:11;95963.94;;;8.87;49.45
10476;BME280;26166;48.264;11.436;2024-03-08T02:38:12;95964.44;;;8.90;49.09
10476;BME280;26166;48.264;11.436;2024-03-08T02:41:13;95958.03;;;8.93;49.39
10476;BME280;26166;48.264;11.436;2024-03-08T02:44:13;95958.53;;;8.96;49.35
10476;BME280;26166;48.264;11.436;2024-03-08T02:50:54;95947.88;;;8.98;48.90
10476;BME280;26166;48.264;11.436;2024-03-08T02:53:54;95957.72;;;8.96;49.12
10476;BME280;26166;48.264;11.436;2024-03-08T02:56:54;95959.03;;;8.92;49.32
10476;BME280;26166;48.264;11.436;2024-03-08T02:59:54;95956.41;;;8.92;49.24
10476;BME280;26166;48.264;11.436;2024-03-08T03:02:55;95949.19;;;8.94;49.00
10476;BME280;26166;48.264;11.436;2024-03-08T03:05:56;95948.88;;;8.97;49.10
10476;BME280;26166;48.264;11.436;2024-03-08T03:08:59;95944.78;;;8.94;49.00
10476;BME280;26166;48.264;11.436;2024-03-08T03:12:10;95935.13;;;8.95;49.04
10476;BME280;26166;48.264;11.436;2024-03-08T03:15:13;95940.03;;;8.98;48.98
10476;BME280;26166;48.264;11.436;2024-03-08T03:18:14;95938.41;;;8.97;48.99
10476;BME280;26166;48.264;11.436;2024-03-08T03:21:15;95933.16;;;8.97;49.26
10476;BME280;26166;48.264;11.436;2024-03-08T03:24:27;95934.63;;;8.99;49.01
10476;BME280;26166;48.264;11.436;2024-03-08T03:27:29;95929.53;;;8.98;48.74
10476;BME280;26166;48.264;11.436;2024-03-08T03:30:30;95931.53;;;8.96;49.10
10476;BME280;26166;48.264;11.436;2024-03-08T03:33:33;95924.47;;;8.96;48.95
10476;BME280;26166;48.264;11.436;2024-03-08T03:40:14;95931.53;;;8.96;48.97
10476;BME280;26166;48.264;11.436;2024-03-08T03:43:14;95930.84;;;8.94;48.93
10476;BME280;26166;48.264;11.436;2024-03-08T03:46:15;95925.63;;;8.94;49.10
10476;BME280;26166;48.264;11.436;2024-03-08T03:52:33;95926.28;;;8.96;48.82
10476;BME280;26166;48.264;11.436;2024-03-08T03:55:33;95925.47;;;8.95;48.95
10476;BME280;26166;48.264;11.436;2024-03-08T03:58:34;95917.94;;;8.92;49.04
10476;BME280;26166;48.264;11.436;2024-03-08T04:01:34;95918.09;;;8.91;48.86
10476;BME280;26166;48.264;11.436;2024-03-08T04:04:34;95916.63;;;8.88;48.94
10476;BME280;26166;48.264;11.436;2024-03-08T04:07:34;95919.25;;;8.88;48.91
10476;BME280;26166;48.264;11.436;2024-03-08T04:10:38;95917.13;;;8.83;49.11
10476;BME280;26166;48.264;11.436;2024-03-08T04:13:47;95916.28;;;8.83;49.29
10476;BME280;26166;48.264;11.436;2024-03-08T04:16:47;95912.19;;;8.80;49.22
10476;BME280;26166;48.264;11.436;2024-03-08T04:19:48;95912.38;;;8.79;49.39
10476;BME280;26166;48.264;11.436;2024-03-08T04:22:48;95921.03;;;8.79;49.25
10476;BME280;26166;48.264;11.436;2024-03-08T04:25:49;95911.38;;;8.80;49.19
10476;BME280;26166;48.264;11.436;2024-03-08T04:28:49;95906.13;;;8.80;49.27
10476;BME280;26166;48.264;11.436;2024-03-08T04:31:49;95905.81;;;8.83;49.52
10476;BME280;26166;48.264;11.436;2024-03-08T04:34:57;95902.38;;;8.82;49.37
10476;BME280;26166;48.264;11.436;2024-03-08T04:37:57;95912.19;;;8.80;49.58
10476;BME280;26166;48.264;11.436;2024-03-08T04:41:05;95904.34;;;8.80;49.52
10476;BME280;26166;48.264;11.436;2024-03-08T04:44:07;95907.63;;;8.82;49.66
10476;BME280;26166;48.264;11.436;2024-03-08T04:47:08;95895.97;;;8.85;49.50
10476;BME280;26166;48.264;11.436;2024-03-08T04:50:08;95895.84;;;8.87;49.32
10476;BME280;26166;48.264;11.436;2024-03-08T04:53:09;95896.66;;;8.87;49.49
10476;BME280;26166;48.264;11.436;2024-03-08T04:56:09;95888.13;;;8.85;49.45
10476;BME280;26166;48.264;11.436;2024-03-08T04:59:09;95891.41;;;8.87;49.60
10476;BME280;26166;48.264;11.436;2024-03-08T05:02:09;95890.44;;;8.88;49.44
10476;BME280;26166;48.264;11.436;2024-03-08T05:05:09;95885.69;;;8.83;49.47
10476;BME280;26166;48.264;11.436;2024-03-08T05:08:12;95884.88;;;8.83;49.66
10476;BME280;26166;48.264;11.436;2024-03-08T05:11:12;95898.47;;;8.78;49.87
10476;BME280;26166;48.264;11.436;2024-03-08T05:14:14;95888.97;;;8.77;49.69
10476;BME280;26166;48.264;11.436;2024-03-08T05:17:24;95896.81;;;8.77;49.91
10476;BME280;26166;48.264;11.436;2024-03-08T05:20:25;95901.06;;;8.78;50.09
10476;BME280;26166;48.264;11.436;2024-03-08T05:23:25;95897.47;;;8.79;49.98
10476;BME280;26166;48.264;11.436;2024-03-08T05:26:26;95887.97;;;8.78;49.72
10476;BME280;26166;48.264;11.436;2024-03-08T05:29:26;95888.97;;;8.77;49.75
10476;BME280;26166;48.264;11.436;2024-03-08T05:32:26;95882.75;;;8.78;50.09
10476;BME280;26166;48.264;11.436;2024-03-08T05:35:26;95881.13;;;8.77;49.84
10476;BME280;26166;48.264;11.436;2024-03-08T05:38:27;95886.50;;;8.76;49.83
10476;BME280;26166;48.264;11.436;2024-03-08T05:41:27;95875.38;;;8.74;49.58
10476;BME280;26166;48.264;11.436;2024-03-08T05:44:27;95878.00;;;8.66;49.93
10476;BME280;26166;48.264;11.436;2024-03-08T05:47:34;95879.97;;;8.64;50.04
10476;BME280;26166;48.264;11.436;2024-03-08T05:50:36;95877.34;;;8.64;49.74
10476;BME280;26166;48.264;11.436;2024-03-08T05:53:36;95875.56;;;8.64;49.96
10476;BME280;26166;48.264;11.436;2024-03-08T05:56:37;95878.66;;;8.68;49.98
10476;BME280;26166;48.264;11.436;2024-03-08T05:59:37;95868.03;;;8.69;49.93
10476;BME280;26166;48.264;11.436;2024-03-08T06:02:38;95872.75;;;8.74;49.78
10476;BME280;26166;48.264;11.436;2024-03-08T06:05:40;95872.94;;;8.72;49.70
10476;BME280;26166;48.264;11.436;2024-03-08T06:08:41;95872.59;;;8.67;49.86
10476;BME280;26166;48.264;11.436;2024-03-08T06:11:43;95862.97;;;8.68;50.22
10476;BME280;26166;48.264;11.436;2024-03-08T06:14:44;95868.03;;;8.69;50.04
10476;BME280;26166;48.264;11.436;2024-03-08T06:17:44;95862.47;;;8.72;50.05
10476;BME280;26166;48.264;11.436;2024-03-08T06:20:44;95864.09;;;8.73;49.86
10476;BME280;26166;48.264;11.436;2024-03-08T06:23:46;95862.47;;;8.72;49.84
10476;BME280;26166;48.264;11.436;2024-03-08T06:26:46;95858.38;;;8.78;50.04
10476;BME280;26166;48.264;11.436;2024-03-08T06:29:46;95865.06;;;8.80;49.93
10476;BME280;26166;48.264;11.436;2024-03-08T06:32:49;95869.66;;;8.87;49.86
10476;BME280;26166;48.264;11.436;2024-03-08T06:35:49;95873.72;;;8.89;49.73
10476;BME280;26166;48.264;11.436;2024-03-08T06:38:49;95876.03;;;8.92;49.78
10476;BME280;26166;48.264;11.436;2024-03-08T06:41:50;95875.22;;;8.92;49.48
10476;BME280;26166;48.264;11.436;2024-03-08T06:44:51;95863.25;;;8.89;49.52
10476;BME280;26166;48.264;11.436;2024-03-08T06:47:51;95874.22;;;8.76;49.84
10476;BME280;26166;48.264;11.436;2024-03-08T06:50:51;95884.38;;;8.71;50.07
10476;BME280;26166;48.264;11.436;2024-03-08T06:53:52;95873.75;;;8.73;50.24
10476;BME280;26166;48.264;11.436;2024-03-08T06:56:52;95872.44;;;8.77;50.03
10476;BME280;26166;48.264;11.436;2024-03-08T06:59:52;95877.50;;;8.78;50.07
10476;BME280;26166;48.264;11.436;2024-03-08T07:02:53;95874.56;;;8.81;49.93
10476;BME280;26166;48.264;11.436;2024-03-08T07:05:53;95873.56;;;8.82;49.93
10476;BME280;26166;48.264;11.436;2024-03-08T07:08:54;95864.59;;;8.77;50.27
10476;BME280;26166;48.264;11.436;2024-03-08T07:11:54;95870.16;;;8.74;50.13
10476;BME280;26166;48.264;11.436;2024-03-08T07:14:54;95868.16;;;8.76;49.90
10476;BME280;26166;48.264;11.436;2024-03-08T07:17:55;95865.22;;;8.71;50.66
10476;BME280;26166;48.264;11.436;2024-03-08T07:20:55;95862.13;;;8.75;49.91
10476;BME280;26166;48.264;11.436;2024-03-08T07:23:55;95867.66;;;8.80;49.91
10476;BME280;26166;48.264;11.436;2024-03-08T07:27:01;95867.66;;;8.80;49.85
10476;BME280;26166;48.264;11.436;2024-03-08T07:30:05;95866.03;;;8.79;49.95
10476;BME280;26166;48.264;11.436;2024-03-08T07:33:05;95864.41;;;8.78;49.99
10476;BME280;26166;48.264;11.436;2024-03-08T07:36:07;95855.88;;;8.76;49.97
10476;BME280;26166;48.264;11.436;2024-03-08T07:39:08;95862.94;;;8.76;50.27
10476;BME280;26166;48.264;11.436;2024-03-08T07:42:11;95847.06;;;8.77;50.04
10476;BME280;26166;48.264;11.436;2024-03-08T07:45:12;95855.25;;;8.82;49.98
10476;BME280;26166;48.264;11.436;2024-03-08T07:48:12;95852.31;;;8.86;49.88
10476;BME280;26166;48.264;11.436;2024-03-08T07:51:15;95853.56;;;8.90;49.76
10476;BME280;26166;48.264;11.436;2024-03-08T07:54:16;95856.88;;;8.92;49.81
10476;BME280;26166;48.264;11.436;2024-03-08T07:57:16;95851.63;;;8.92;49.79
10476;BME280;26166;48.264;11.436;2024-03-08T08:00:16;95844.09;;;8.89;49.65
10476;BME280;26166;48.264;11.436;2024-03-08T08:03:19;95844.78;;;8.82;49.58
10476;BME280;26166;48.264;11.436;2024-03-08T08:06:20;95838.53;;;8.75;49.56
10476;BME280;26166;48.264;11.436;2024-03-08T08:09:21;95838.41;;;8.69;49.83
10476;BME280;26166;48.264;11.436;2024-03-08T08:12:34;95838.56;;;8.67;49.56
10476;BME280;26166;48.264;11.436;2024-03-08T08:15:34;95840.53;;;8.65;49.70
10476;BME280;26166;48.264;11.436;2024-03-08T08:18:34;95841.84;;;8.69;49.77
10476;BME280;26166;48.264;11.436;2024-03-08T08:21:35;95838.56;;;8.67;49.97
10476;BME280;26166;48.264;11.436;2024-03-08T08:24:36;95829.25;;;8.65;49.98
10476;BME280;26166;48.264;11.436;2024-03-08T08:27:37;95833.31;;;8.67;50.35
10476;BME280;26166;48.264;11.436;2024-03-08T08:30:38;95825.81;;;8.72;49.99
10476;BME280;26166;48.264;11.436;2024-03-08T08:33:38;95833.47;;;8.74;50.01
10476;BME280;26166;48.264;11.436;2024-03-08T08:36:40;95820.22;;;8.67;49.96
10476;BME280;26166;48.264;11.436;2024-03-08T08:39:40;95811.72;;;8.65;50.12
10476;BME280;26166;48.264;11.436;2024-03-08T08:42:40;95810.72;;;8.66;50.35
10476;BME280;26166;48.264;11.436;2024-03-08T08:45:40;95809.59;;;8.69;50.36
10476;BME280;26166;48.264;11.436;2024-03-08T08:48:42;95807.28;;;8.74;50.15
10476;BME280;26166;48.264;11.436;2024-03-08T08:51:48;95804.00;;;8.80;49.82
10476;BME280;26166;48.264;11.436;2024-03-08T08:54:48;95802.88;;;8.82;49.69
10476;BME280;26166;48.264;11.436;2024-03-08T08:57:49;95805.16;;;8.86;49.73
10476;BME280;26166;48.264;11.436;2024-03-08T09:00:52;95798.25;;;8.84;49.95
10476;BME280;26166;48.264;11.436;2024-03-08T09:03:53;95802.69;;;8.84;49.79
10476;BME280;26166;48.264;11.436;2024-03-08T09:06:54;95798.94;;;8.87;50.21
10476;BME280;26166;48.264;11.436;2024-03-08T09:09:54;95796.31;;;8.87;50.15
10476;BME280;26166;48.264;11.436;2024-03-08T09:12:58;95789.78;;;8.82;50.48
10476;BME280;26166;48.264;11.436;2024-03-08T09:15:59;95791.56;;;8.82;50.60
10476;BME280;26166;48.264;11.436;2024-03-08T09:19:00;95785.16;;;8.84;50.49
10476;BME280;26166;48.264;11.436;2024-03-08T09:22:00;95778.63;;;8.89;50.58
10476;BME280;26166;48.264;11.436;2024-03-08T09:25:00;95776.97;;;8.88;50.67
10476;BME280;26166;48.264;11.436;2024-03-08T09:28:01;95771.94;;;8.86;50.63
10476;BME280;26166;48.264;11.436;2024-03-08T09:31:01;95765.22;;;8.83;50.87
10476;BME280;26166;48.264;11.436;2024-03-08T09:34:03;95771.13;;;8.86;50.86
10476;BME280;26166;48.264;11.436;2024-03-08T09:37:04;95761.94;;;8.81;50.96
10476;BME280;26166;48.264;11.436;2024-03-08T09:40:04;95762.09;;;8.80;51.23
10476;BME280;26166;48.264;11.436;2024-03-08T09:43:12;95763.91;;;8.79;51.13
10476;BME280;26166;48.264;11.436;2024-03-08T09:46:12;95762.28;;;8.78;51.14
10476;BME280;26166;48.264;11.436;2024-03-08T09:49:14;95760.28;;;8.80;51.12
10476;BME280;26166;48.264;11.436;2024-03-08T09:52:14;95755.22;;;8.79;51.33
10476;BME280;26166;48.264;11.436;2024-03-08T09:55:15;95754.59;;;8.77;51.25
10476;BME280;26166;48.264;11.436;2024-03-08T09:58:17;95756.22;;;8.78;51.23
10476;BME280;26166;48.264;11.436;2024-03-08T10:01:18;95749.00;;;8.80;51.29
10476;BME280;26166;48.264;11.436;2024-03-08T10:04:18;95742.81;;;8.81;51.10
10476;BME280;26166;48.264;11.436;2024-03-08T10:07:19;95742.63;;;8.82;51.29
10476;BME280;26166;48.264;11.436;2024-03-08T10:10:20;95742.31;;;8.86;51.35
10476;BME280;26166;48.264;11.436;2024-03-08T10:13:21;95733.44;;;8.87;51.16
10476;BME280;26166;48.264;11.436;2024-03-08T10:16:21;95734.06;;;8.97;51.00
10476;BME280;26166;48.264;11.436;2024-03-08T10:19:24;95739.59;;;9.02;51.17
10476;BME280;26166;48.264;11.436;2024-03-08T10:22:27;95728.47;;;9.08;51.07
10476;BME280;26166;48.264;11.436;2024-03-08T10:25:29;95721.53;;;9.15;50.78
10476;BME280;26166;48.264;11.436;2024-03-08T10:28:32;95723.16;;;9.16;50.96
10476;BME280;26166;48.264;11.436;2024-03-08T10:31:33;95709.91;;;9.18;50.94
10476;BME280;26166;48.264;11.436;2024-03-08T10:34:33;95713.97;;;9.20;51.28
10476;BME280;26166;48.264;11.436;2024-03-08T10:37:34;95718.25;;;9.21;51.30
10476;BME280;26166;48.264;11.436;2024-03-08T10:40:36;95718.69;;;9.25;50.99
10476;BME280;26166;48.264;11.436;2024-03-08T10:43:52;95711.69;;;9.25;51.21
10476;BME280;26166;48.264;11.436;2024-03-08T10:49:59;95714.59;;;9.30;50.97
10476;BME280;26166;48.264;11.436;2024-03-08T10:53:03;95713.78;;;9.30;51.13
10476;BME280;26166;48.264;11.436;2024-03-08T10:56:06;95707.72;;;9.29;51.17
10476;BME280;26166;48.264;11.436;2024-03-08T10:59:08;95706.75;;;9.30;50.81
10476;BME280;26166;48.264;11.436;2024-03-08T11:02:10;95702.13;;;9.32;50.92
10476;BME280;26166;48.264;11.436;2024-03-08T11:05:15;95693.28;;;9.33;51.24
10476;BME280;26166;48.264;11.436;2024-03-08T11:08:30;95694.94;;;9.34;51.17
10476;BME280;26166;48.264;11.436;2024-03-08T11:11:31;95691.31;;;9.35;51.36
10476;BME280;26166;48.264;11.436;2024-03-08T11:14:45;95683.25;;;9.37;51.11
10476;BME280;26166;48.264;11.436;2024-03-08T11:17:50;95682.44;;;9.37;51.39
10476;BME280;26166;48.264;11.436;2024-03-08T11:20:50;95674.06;;;9.41;51.50
10476;BME280;26166;48.264;11.436;2024-03-08T11:24:00;95663.41;;;9.43;51.32
10476;BME280;26166;48.264;11.436;2024-03-08T11:27:00;95666.03;;;9.43;51.17
10476;BME280;26166;48.264;11.436;2024-03-08T11:30:07;95658.16;;;9.43;51.19
10476;BME280;26166;48.264;11.436;2024-03-08T11:33:18;95647.50;;;9.44;51.16
10476;BME280;26166;48.264;11.436;2024-03-08T11:36:22;95644.72;;;9.46;51.46
10476;BME280;26166;48.264;11.436;2024-03-08T11:39:23;95644.72;;;9.46;51.31
10476;BME280;26166;48.264;11.436;2024-03-08T11:42:24;95647.63;;;9.51;51.58
10476;BME280;26166;48.264;11.436;2024-03-08T11:45:26;95641.03;;;9.55;51.53
10476;BME280;26166;48.264;11.436;2024-03-08T11:48:26;95645.66;;;9.53;51.29
10476;BME280;26166;48.264;11.436;2024-03-08T11:51:26;95647.91;;;9.56;51.22
10476;BME280;26166;48.264;11.436;2024-03-08T11:54:27;95637.25;;;9.57;51.47
10476;BME280;26166;48.264;11.436;2024-03-08T11:57:27;95638.06;;;9.58;51.37
10476;BME280;26166;48.264;11.436;2024-03-08T12:00:28;95628.94;;;9.54;51.04
10476;BME280;26166;48.264;11.436;2024-03-08T12:03:35;95631.53;;;9.54;51.63
10476;BME280;26166;48.264;11.436;2024-03-08T12:06:38;95623.06;;;9.52;51.41
10476;BME280;26166;48.264;11.436;2024-03-08T12:09:40;95622.06;;;9.53;51.31
10476;BME280;26166;48.264;11.436;2024-03-08T12:12:40;95624.97;;;9.58;51.31
10476;BME280;26166;48.264;11.436;2024-03-08T12:15:41;95607.41;;;9.58;51.35
10476;BME280;26166;48.264;11.436;2024-03-08T12:18:41;95614.94;;;9.62;51.54
10476;BME280;26166;48.264;11.436;2024-03-08T12:21:42;95604.28;;;9.63;51.05
10476;BME280;26166;48.264;11.436;2024-03-08T12:25:02;95603.28;;;9.64;51.33
10476;BME280;26166;48.264;11.436;2024-03-08T12:28:11;95601.84;;;9.62;51.02
10476;BME280;26166;48.264;11.436;2024-03-08T12:31:13;95599.38;;;9.60;51.54
10476;BME280;26166;48.264;11.436;2024-03-08T12:34:16;95594.78;;;9.62;51.41
10476;BME280;26166;48.264;11.436;2024-03-08T12:37:17;95580.47;;;9.65;51.29
10476;BME280;26166;48.264;11.436;2024-03-08T12:40:17;95576.69;;;9.67;51.00
10476;BME280;26166;48.264;11.436;2024-03-08T12:43:17;95580.13;;;9.68;50.64
10476;BME280;26166;48.264;11.436;2024-03-08T12:46:19;95571.28;;;9.69;50.66
10476;BME280;26166;48.264;11.436;2024-03-08T12:49:22;95569.47;;;9.69;50.89
10476;BME280;26166;48.264;11.436;2024-03-08T12:52:22;95563.25;;;9.70;50.73
10476;BME280;26166;48.264;11.436;2024-03-08T12:55:22;95555.38;;;9.70;50.76
10476;BME280;26166;48.264;11.436;2024-03-08T12:58:23;95545.84;;;9.69;50.69
10476;BME280;26166;48.264;11.436;2024-03-08T13:01:23;95545.50;;;9.72;50.66
10476;BME280;26166;48.264;11.436;2024-03-08T13:04:23;95548.13;;;9.72;50.06
10476;BME280;26166;48.264;11.436;2024-03-08T13:07:25;95535.03;;;9.72;50.36
10476;BME280;26166;48.264;11.436;2024-03-08T13:10:26;95538.28;;;9.74;49.95
10476;BME280;26166;48.264;11.436;2024-03-08T13:13:26;95536.28;;;9.76;50.01
10476;BME280;26166;48.264;11.436;2024-03-08T13:16:26;95528.44;;;9.76;49.65
10476;BME280;26166;48.264;11.436;2024-03-08T13:19:29;95524.81;;;9.77;49.39
10476;BME280;26166;48.264;11.436;2024-03-08T13:22:30;95529.44;;;9.75;49.75
10476;BME280;26166;48.264;11.436;2024-03-08T13:25:31;95531.03;;;9.76;49.54
10476;BME280;26166;48.264;11.436;2024-03-08T13:28:31;95524.19;;;9.75;49.56
10476;BME280;26166;48.264;11.436;2024-03-08T13:31:36;95527.44;;;9.77;49.60
10476;BME280;26166;48.264;11.436;2024-03-08T13:34:36;95526.25;;;9.80;49.23
10476;BME280;26166;48.264;11.436;2024-03-08T13:37:36;95519.41;;;9.79;48.83
10476;BME280;26166;48.264;11.436;2024-03-08T13:40:37;95519.56;;;9.77;48.66
10476;BME280;26166;48.264;11.436;2024-03-08T13:43:37;95512.50;;;9.78;48.31
10476;BME280;26166;48.264;11.436;2024-03-08T13:46:37;95514.97;;;9.79;48.20
10476;BME280;26166;48.264;11.436;2024-03-08T13:49:38;95502.84;;;9.78;47.87
10476;BME280;26166;48.264;11.436;2024-03-08T13:52:38;95501.19;;;9.77;48.00
10476;BME280;26166;48.264;11.436;2024-03-08T13:55:39;95492.97;;;9.80;48.21
10476;BME280;26166;48.264;11.436;2024-03-08T13:58:40;95487.72;;;9.80;48.43
10476;BME280;26166;48.264;11.436;2024-03-08T14:01:41;95491.81;;;9.83;48.21
10476;BME280;26166;48.264;11.436;2024-03-08T14:04:43;95482.28;;;9.82;48.03
10476;BME280;26166;48.264;11.436;2024-03-08T14:07:43;95479.06;;;9.80;47.41
10476;BME280;26166;48.264;11.436;2024-03-08T14:10:46;95476.25;;;9.81;47.81
10476;BME280;26166;48.264;11.436;2024-03-08T14:13:47;95469.19;;;9.82;47.44
10476;BME280;26166;48.264;11.436;2024-03-08T14:16:47;95466.56;;;9.82;47.12
10476;BME280;26166;48.264;11.436;2024-03-08T14:19:48;95462.97;;;9.83;47.38
10476;BME280;26166;48.264;11.436;2024-03-08T14:22:48;95455.53;;;9.86;47.33
10476;BME280;26166;48.264;11.436;2024-03-08T14:25:49;95443.41;;;9.85;47.51
10476;BME280;26166;48.264;11.436;2024-03-08T14:28:51;95458.53;;;9.83;47.62
10476;BME280;26166;48.264;11.436;2024-03-08T14:31:57;95444.41;;;9.84;47.88
10476;BME280;26166;48.264;11.436;2024-03-08T14:34:58;95441.13;;;9.82;47.43
10476;BME280;26166;48.264;11.436;2024-03-08T14:37:59;95439.53;;;9.81;47.63
10476;BME280;26166;48.264;11.436;2024-03-08T14:41:00;95440.72;;;9.79;47.33
10476;BME280;26166;48.264;11.436;2024-03-08T14:44:01;95434.81;;;9.77;47.09
10476;BME280;26166;48.264;11.436;2024-03-08T14:47:01;95431.38;;;9.76;47.29
10476;BME280;26166;48.264;11.436;2024-03-08T14:50:05;95430.22;;;9.79;47.36
10476;BME280;26166;48.264;11.436;2024-03-08T14:53:07;95424.97;;;9.79;47.58
10476;BME280;26166;48.264;11.436;2024-03-08T14:56:07;95431.03;;;9.79;47.65
10476;BME280;26166;48.264;11.436;2024-03-08T14:59:08;95431.66;;;9.81;47.76
10476;BME280;26166;48.264;11.436;2024-03-08T15:02:09;95431.84;;;9.80;47.69
10476;BME280;26166;48.264;11.436;2024-03-08T15:05:10;95424.16;;;9.78;47.19
10476;BME280;26166;48.264;11.436;2024-03-08T15:08:13;95421.16;;;9.81;47.29
10476;BME280;26166;48.264;11.436;2024-03-08T15:11:19;95407.03;;;9.82;47.42
10476;BME280;26166;48.264;11.436;2024-03-08T15:14:23;95406.06;;;9.83;46.78
10476;BME280;26166;48.264;11.436;2024-03-08T15:17:25;95409.66;;;9.82;46.83
10476;BME280;26166;48.264;11.436;2024-03-08T15:20:25;95403.44;;;9.83;46.77
10476;BME280;26166;48.264;11.436;2024-03-08T15:23:28;95405.06;;;9.84;47.05
10476;BME280;26166;48.264;11.436;2024-03-08T15:26:29;95403.25;;;9.85;47.34
10476;BME280;26166;48.264;11.436;2024-03-08T15:29:32;95393.56;;;9.85;46.68
10476;BME280;26166;48.264;11.436;2024-03-08T15:32:33;95391.94;;;9.84;47.02
10476;BME280;26166;48.264;11.436;2024-03-08T15:35:34;95387.06;;;9.81;46.95
10476;BME280;26166;48.264;11.436;2024-03-08T15:38:35;95385.09;;;9.83;47.17
10476;BME280;26166;48.264;11.436;2024-03-08T15:41:35;95374.59;;;9.83;47.20
10476;BME280;26166;48.264;11.436;2024-03-08T15:44:35;95372.94;;;9.82;47.55
10476;BME280;26166;48.264;11.436;2024-03-08T15:47:36;95384.09;;;9.84;47.49
10476;BME280;26166;48.264;11.436;2024-03-08T15:50:37;95382.63;;;9.82;47.13
10476;BME280;26166;48.264;11.436;2024-03-08T15:53:37;95375.94;;;9.79;47.28
10476;BME280;26166;48.264;11.436;2024-03-08T15:56:37;95377.56;;;9.80;47.29
10476;BME280;26166;48.264;11.436;2024-03-08T15:59:37;95380.19;;;9.80;47.59
10476;BME280;26166;48.264;11.436;2024-03-08T16:02:40;95378.19;;;9.82;47.50
10476;BME280;26166;48.264;11.436;2024-03-08T16:05:41;95378.84;;;9.84;47.08
10476;BME280;26166;48.264;11.436;2024-03-08T16:08:42;95376.41;;;9.83;47.04
10476;BME280;26166;48.264;11.436;2024-03-08T16:11:43;95371.97;;;9.83;47.40
10476;BME280;26166;48.264;11.436;2024-03-08T16:14:44;95374.41;;;9.85;47.39